Time;durP1;ratioP1;P1;durP2;ratioP2;P2;SDS_P1;SDS_P2;PMS_P1;PMS_P2;Temp;Humidity;BMP_temperature;BMP_pressure;BME280_temperature;BME280_humidity;BME280_pressure;Samples;Min_cycle;Max_cycle;Signal;HPM_P1;HPM_P2
2021/10/03 00:01:25;;;;;;;1.70;1.60;;;18.30;68.10;;;;;;5054182;28;20178;-77
2021/10/03 00:03:51;;;;;;;1.38;1.27;;;18.30;68.10;;;;;;5054497;28;20166;-75
2021/10/03 00:06:17;;;;;;;2.25;1.25;;;18.30;68.90;;;;;;5072535;28;20625;-75
2021/10/03 00:08:43;;;;;;;1.20;1.10;;;18.30;68.20;;;;;;5072180;28;20174;-72
2021/10/03 00:11:08;;;;;;;1.38;1.27;;;18.30;68.20;;;;;;5071211;28;20566;-73
2021/10/03 00:13:34;;;;;;;1.27;1.17;;;18.30;68.20;;;;;;5071951;28;20204;-72
2021/10/03 00:16:00;;;;;;;1.50;1.20;;;18.30;68.20;;;;;;5072295;28;20201;-73
2021/10/03 00:18:25;;;;;;;1.75;1.30;;;18.30;68.20;;;;;;5072477;28;20258;-73
2021/10/03 00:20:51;;;;;;;1.77;1.20;;;18.30;68.30;;;;;;5071561;28;20678;-72
2021/10/03 00:23:16;;;;;;;1.30;1.20;;;18.30;68.30;;;;;;5070973;28;20238;-74
2021/10/03 00:25:42;;;;;;;1.48;1.38;;;18.30;68.40;;;;;;5072592;28;20179;-72
2021/10/03 00:28:07;;;;;;;1.42;1.33;;;18.30;68.50;;;;;;5071452;28;20174;-78
2021/10/03 00:30:34;;;;;;;2.67;1.55;;;18.30;68.30;;;;;;5076111;28;20253;-76
2021/10/03 00:33:00;;;;;;;1.80;1.20;;;18.30;68.40;;;;;;5076169;28;20232;-75
2021/10/03 00:35:26;;;;;;;1.17;1.08;;;18.30;68.30;;;;;;5075254;28;20253;-76
2021/10/03 00:37:51;;;;;;;1.65;1.13;;;18.30;68.40;;;;;;5075884;28;20694;-72
2021/10/03 00:40:17;;;;;;;1.58;1.08;;;18.30;68.40;;;;;;5075943;28;20170;-76
2021/10/03 00:42:43;;;;;;;1.40;1.30;;;18.30;68.40;;;;;;5075412;28;20224;-72
2021/10/03 00:45:09;;;;;;;1.40;1.30;;;18.30;68.40;;;;;;5074618;28;20543;-75
2021/10/03 00:47:35;;;;;;;1.30;1.20;;;18.30;68.40;;;;;;5075926;28;20178;-74
2021/10/03 00:50:00;;;;;;;1.27;1.17;;;18.30;68.50;;;;;;5074655;28;20213;-72
2021/10/03 00:52:26;;;;;;;1.40;1.30;;;18.30;68.50;;;;;;5075666;28;20170;-74
2021/10/03 00:54:51;;;;;;;1.13;1.02;;;18.30;68.50;;;;;;5075588;28;20205;-72
2021/10/03 00:57:17;;;;;;;1.25;1.15;;;18.30;68.50;;;;;;5075127;28;20587;-76
2021/10/03 00:59:42;;;;;;;0.93;0.93;;;18.30;68.50;;;;;;5057868;28;20183;-76
2021/10/03 01:02:08;;;;;;;1.10;1.00;;;18.30;68.50;;;;;;5057456;28;20171;-79
2021/10/03 01:04:33;;;;;;;1.88;1.27;;;18.30;68.50;;;;;;5074812;28;20201;-75
2021/10/03 01:06:59;;;;;;;1.35;1.25;;;18.30;68.60;;;;;;5076119;28;20648;-73
2021/10/03 01:09:24;;;;;;;0.90;0.90;;;18.30;68.50;;;;;;5075366;28;20233;-76
2021/10/03 01:11:50;;;;;;;1.48;1.13;;;18.30;68.60;;;;;;5074589;28;20185;-71
2021/10/03 01:14:16;;;;;;;1.00;1.00;;;18.30;68.60;;;;;;5075432;28;20628;-73
2021/10/03 01:16:41;;;;;;;1.70;1.30;;;18.30;68.60;;;;;;5075394;28;20185;-73
2021/10/03 01:19:07;;;;;;;1.10;1.00;;;18.30;68.50;;;;;;5073317;28;20171;-73
2021/10/03 01:21:33;;;;;;;1.17;1.08;;;18.30;68.60;;;;;;5075132;28;20171;-74
2021/10/03 01:23:58;;;;;;;1.13;1.05;;;18.30;68.60;;;;;;5074071;28;20223;-72
2021/10/03 01:26:24;;;;;;;1.10;1.00;;;18.30;68.60;;;;;;5075260;28;20170;-76
2021/10/03 01:28:53;;;;;;;1.25;1.15;;;18.30;69.40;;;;;;5075012;28;20182;-75
2021/10/03 01:31:22;;;;;;;1.70;1.00;;;18.30;68.60;;;;;;5074396;28;20285;-76
2021/10/03 01:33:48;;;;;;;1.20;1.10;;;18.30;68.70;;;;;;5074804;28;20498;-73
2021/10/03 01:36:13;;;;;;;1.30;1.20;;;18.30;68.60;;;;;;5075614;28;20182;-73
2021/10/03 01:38:39;;;;;;;1.15;1.10;;;18.30;68.70;;;;;;5074157;28;20201;-73
2021/10/03 01:41:05;;;;;;;1.20;1.10;;;18.30;68.70;;;;;;5074115;28;20178;-72
2021/10/03 01:43:30;;;;;;;1.05;1.05;;;18.30;68.70;;;;;;5074719;28;20539;-75
2021/10/03 01:45:56;;;;;;;1.20;1.20;;;18.30;68.70;;;;;;5073840;28;20175;-72
2021/10/03 01:48:22;;;;;;;1.20;1.10;;;18.30;68.70;;;;;;5074829;28;20175;-72
2021/10/03 01:50:53;;;;;;;1.55;1.00;;;18.30;68.70;;;;;;5074535;28;20294;-73
2021/10/03 01:53:21;;;;;;;1.25;1.15;;;18.30;68.70;;;;;;5073866;28;20660;-71
2021/10/03 01:55:47;;;;;;;1.52;1.42;;;18.30;68.70;;;;;;5074669;28;20213;-73
2021/10/03 01:58:14;;;;;;;1.70;1.30;;;18.30;68.80;;;;;;5074481;28;20198;-75
2021/10/03 02:00:40;;;;;;;1.27;1.17;;;18.30;68.80;;;;;;5073794;28;20237;-78
2021/10/03 02:03:06;;;;;;;0.98;0.93;;;18.30;68.80;;;;;;5074031;28;20200;-76
2021/10/03 02:05:39;;;;;;;1.60;1.08;;;18.30;68.90;;;;;;5074692;28;20257;-74
2021/10/03 02:08:05;;;;;;;1.27;1.15;;;18.30;68.80;;;;;;5073452;28;20680;-75
2021/10/03 02:10:31;;;;;;;1.25;1.15;;;18.30;68.90;;;;;;5074323;28;20554;-72
2021/10/03 02:12:57;;;;;;;1.00;0.90;;;18.30;68.80;;;;;;5073972;28;20262;-72
2021/10/03 02:15:22;;;;;;;1.15;1.08;;;18.20;68.80;;;;;;5073465;28;20174;-72
2021/10/03 02:17:47;;;;;;;1.08;1.08;;;18.20;68.80;;;;;;5073712;28;20170;-75
2021/10/03 02:20:17;;;;;;;1.10;1.10;;;18.30;68.80;;;;;;5073490;28;20181;-74
2021/10/03 02:22:43;;;;;;;1.15;1.05;;;18.30;69.00;;;;;;5073917;28;20231;-72
2021/10/03 02:25:09;;;;;;;1.25;1.15;;;18.30;68.90;;;;;;5073910;28;20186;-74
2021/10/03 02:27:34;;;;;;;1.10;1.00;;;18.30;68.90;;;;;;5073314;28;20193;-76
2021/10/03 02:30:00;;;;;;;1.00;0.90;;;18.30;68.90;;;;;;5073663;28;20207;-75
2021/10/03 02:32:26;;;;;;;1.00;1.00;;;18.30;69.00;;;;;;5073875;28;20175;-73
2021/10/03 02:34:52;;;;;;;1.00;1.00;;;18.30;68.90;;;;;;5073028;28;20528;-72
2021/10/03 02:37:17;;;;;;;1.00;0.90;;;18.30;68.90;;;;;;5073979;28;20572;-72
2021/10/03 02:39:43;;;;;;;1.25;1.15;;;18.20;68.80;;;;;;5073772;28;20187;-72
2021/10/03 02:42:08;;;;;;;1.00;0.90;;;18.30;69.00;;;;;;5072770;28;20174;-74
2021/10/03 02:44:34;;;;;;;0.90;0.90;;;18.30;68.80;;;;;;5073685;28;20174;-72
2021/10/03 02:46:59;;;;;;;1.00;0.90;;;18.20;69.00;;;;;;5073281;28;20694;-74
2021/10/03 02:49:25;;;;;;;0.90;0.90;;;18.20;69.00;;;;;;5072855;28;20214;-72
2021/10/03 02:51:50;;;;;;;0.88;0.88;;;18.30;69.10;;;;;;5072991;28;20171;-72
2021/10/03 02:54:16;;;;;;;0.82;0.82;;;18.30;69.10;;;;;;5073224;28;20288;-73
2021/10/03 02:56:41;;;;;;;0.75;0.75;;;18.20;69.00;;;;;;5072715;28;20174;-72
2021/10/03 02:59:07;;;;;;;0.90;0.90;;;18.30;69.00;;;;;;5072995;28;20181;-74
2021/10/03 03:01:32;;;;;;;0.70;0.70;;;18.20;69.00;;;;;;5073299;28;20593;-77
2021/10/03 03:03:58;;;;;;;0.88;0.88;;;18.30;69.10;;;;;;5072460;28;20652;-78
2021/10/03 03:06:23;;;;;;;1.40;1.15;;;18.30;69.10;;;;;;5073389;28;20174;-73
2021/10/03 03:08:49;;;;;;;1.00;0.80;;;18.30;69.20;;;;;;5073160;28;20215;-73
2021/10/03 03:11:15;;;;;;;0.90;0.90;;;18.20;69.10;;;;;;5072241;28;20301;-71
2021/10/03 03:13:41;;;;;;;0.95;0.90;;;18.20;69.10;;;;;;5073120;28;20185;-71
2021/10/03 03:16:06;;;;;;;1.77;0.98;;;18.20;69.10;;;;;;5072665;28;20183;-72
2021/10/03 03:18:32;;;;;;;1.00;0.98;;;18.30;69.10;;;;;;5072354;28;20592;-71
2021/10/03 03:20:57;;;;;;;0.75;0.75;;;18.30;69.20;;;;;;5072928;28;20265;-75
2021/10/03 03:23:22;;;;;;;1.13;1.00;;;18.20;69.10;;;;;;5072195;28;20251;-73
2021/10/03 03:25:48;;;;;;;0.80;0.80;;;18.20;69.10;;;;;;5072925;28;20171;-73
2021/10/03 03:28:13;;;;;;;0.80;0.80;;;18.20;69.10;;;;;;5072999;28;20194;-76
2021/10/03 03:30:39;;;;;;;1.20;1.10;;;18.20;69.20;;;;;;5072050;28;20730;-76
2021/10/03 03:33:05;;;;;;;1.08;1.00;;;18.20;69.10;;;;;;5072522;28;20179;-74
2021/10/03 03:35:31;;;;;;;0.70;0.68;;;18.20;69.20;;;;;;5072897;28;20186;-74
2021/10/03 03:37:56;;;;;;;1.08;1.08;;;18.20;69.20;;;;;;5071853;28;20166;-75
2021/10/03 03:40:22;;;;;;;1.10;1.00;;;18.20;69.10;;;;;;5072915;28;20181;-72
2021/10/03 03:42:47;;;;;;;1.48;1.00;;;18.20;69.10;;;;;;5072651;28;20507;-71
2021/10/03 03:45:13;;;;;;;1.13;1.05;;;18.20;69.20;;;;;;5072082;28;20171;-72
2021/10/03 03:47:39;;;;;;;1.10;1.00;;;18.20;69.30;;;;;;5072923;28;20170;-72
2021/10/03 03:50:06;;;;;;;0.80;0.80;;;18.20;69.30;;;;;;5072522;28;20218;-74
2021/10/03 03:52:31;;;;;;;0.98;0.98;;;18.20;69.30;;;;;;5072128;28;20175;-71
2021/10/03 03:54:57;;;;;;;1.25;0.90;;;18.20;69.30;;;;;;5072460;28;20272;-71
2021/10/03 03:57:22;;;;;;;0.95;0.90;;;18.20;69.30;;;;;;5072902;28;20213;-73
2021/10/03 03:59:48;;;;;;;1.23;0.93;;;18.20;69.30;;;;;;5071602;28;20166;-75
2021/10/03 04:02:15;;;;;;;1.23;1.00;;;18.20;69.30;;;;;;5072751;28;20183;-77
2021/10/03 04:04:41;;;;;;;1.50;0.77;;;18.20;69.20;;;;;;5074977;28;20174;-72
2021/10/03 04:07:06;;;;;;;1.45;1.35;;;18.20;69.20;;;;;;5075691;28;20624;-77
2021/10/03 04:09:32;;;;;;;0.70;0.70;;;18.20;69.20;;;;;;5076661;28;20222;-73
2021/10/03 04:11:57;;;;;;;0.90;0.85;;;18.20;69.20;;;;;;5076476;28;20166;-72
2021/10/03 04:14:23;;;;;;;1.30;1.00;;;18.20;69.10;;;;;;5075685;28;20229;-72
2021/10/03 04:16:48;;;;;;;0.82;0.82;;;18.20;69.10;;;;;;5076398;28;20178;-72
2021/10/03 04:19:14;;;;;;;0.82;0.82;;;18.20;69.10;;;;;;5076525;28;20430;-74
2021/10/03 04:21:39;;;;;;;0.73;0.73;;;18.20;69.00;;;;;;5075581;28;20178;-72
2021/10/03 04:24:05;;;;;;;0.77;0.77;;;18.20;69.00;;;;;;5075791;28;20715;-75
2021/10/03 04:26:30;;;;;;;0.70;0.60;;;18.20;69.00;;;;;;5076422;28;20167;-75
2021/10/03 04:28:56;;;;;;;1.00;0.80;;;18.20;69.00;;;;;;5075137;28;20214;-75
2021/10/03 04:31:22;;;;;;;0.82;0.82;;;18.20;69.00;;;;;;5076293;28;20665;-75
2021/10/03 04:33:47;;;;;;;1.40;1.00;;;18.20;69.00;;;;;;5075405;28;20564;-74
2021/10/03 04:36:13;;;;;;;0.90;0.90;;;18.20;69.00;;;;;;5075870;28;20178;-75
2021/10/03 04:38:38;;;;;;;1.05;1.00;;;18.20;69.00;;;;;;5076034;28;20170;-72
2021/10/03 04:41:04;;;;;;;0.80;0.80;;;18.20;69.10;;;;;;5075011;28;20171;-72
2021/10/03 04:43:29;;;;;;;0.95;0.85;;;18.20;69.10;;;;;;5075827;28;20179;-72
2021/10/03 04:45:55;;;;;;;0.80;0.80;;;18.20;69.00;;;;;;5075754;28;20671;-71
2021/10/03 04:48:20;;;;;;;0.80;0.80;;;18.20;69.20;;;;;;5075055;28;20537;-75
2021/10/03 04:50:46;;;;;;;0.80;0.80;;;18.20;69.10;;;;;;5075799;28;20206;-71
2021/10/03 04:53:11;;;;;;;0.80;0.80;;;18.20;69.10;;;;;;5075698;28;20179;-75
2021/10/03 04:55:37;;;;;;;0.80;0.80;;;18.20;69.10;;;;;;5074895;28;20186;-73
2021/10/03 04:58:02;;;;;;;0.90;0.90;;;18.20;69.10;;;;;;5075465;28;20181;-76
2021/10/03 05:00:28;;;;;;;0.80;0.80;;;18.20;69.10;;;;;;5075798;28;20175;-77
2021/10/03 05:02:54;;;;;;;1.23;0.90;;;18.20;69.10;;;;;;5074789;28;20170;-75
2021/10/03 05:05:20;;;;;;;0.77;0.77;;;18.20;69.10;;;;;;5075803;28;20567;-76
2021/10/03 05:07:46;;;;;;;0.82;0.82;;;18.20;69.10;;;;;;5075490;28;20525;-73
2021/10/03 05:10:11;;;;;;;1.33;0.68;;;18.20;69.10;;;;;;5074389;28;20205;-75
2021/10/03 05:12:37;;;;;;;0.82;0.68;;;18.20;69.10;;;;;;5075400;28;20512;-72
2021/10/03 05:15:03;;;;;;;0.70;0.70;;;18.20;69.10;;;;;;5074709;28;20171;-72
2021/10/03 05:17:29;;;;;;;0.98;0.80;;;18.20;70.00;;;;;;5074344;28;20193;-74
2021/10/03 05:19:54;;;;;;;0.95;0.70;;;18.20;69.10;;;;;;5075037;28;20281;-73
2021/10/03 05:22:20;;;;;;;0.85;0.82;;;18.10;69.10;;;;;;5075026;28;20205;-75
2021/10/03 05:24:45;;;;;;;0.70;0.70;;;18.20;69.10;;;;;;5074460;28;20530;-73
2021/10/03 05:27:11;;;;;;;0.70;0.70;;;18.20;69.20;;;;;;5075134;28;20536;-76
2021/10/03 05:29:36;;;;;;;0.68;0.68;;;18.20;69.10;;;;;;5074864;28;20241;-77
2021/10/03 05:32:02;;;;;;;0.73;0.73;;;18.20;69.20;;;;;;5074242;28;20174;-76
2021/10/03 05:34:27;;;;;;;0.90;0.90;;;18.20;69.10;;;;;;5074909;28;20182;-75
2021/10/03 05:36:53;;;;;;;0.60;0.60;;;18.20;69.20;;;;;;5074601;28;20171;-71
2021/10/03 05:39:18;;;;;;;0.75;0.70;;;18.10;69.20;;;;;;5074429;28;20179;-72
2021/10/03 05:41:43;;;;;;;0.90;0.73;;;18.20;70.00;;;;;;5075044;28;20181;-71
2021/10/03 05:44:09;;;;;;;0.75;0.75;;;18.10;69.10;;;;;;5073813;28;20201;-74
2021/10/03 05:46:34;;;;;;;0.60;0.60;;;18.20;69.20;;;;;;5075088;28;20680;-72
2021/10/03 05:49:00;;;;;;;0.75;0.73;;;18.20;69.20;;;;;;5074692;28;20181;-71
2021/10/03 05:51:25;;;;;;;0.70;0.60;;;18.10;69.10;;;;;;5074036;28;20238;-74
2021/10/03 05:53:51;;;;;;;0.80;0.80;;;18.20;69.10;;;;;;5074471;28;20533;-71
2021/10/03 05:56:16;;;;;;;0.88;0.77;;;18.10;69.10;;;;;;5074627;28;20197;-72
2021/10/03 05:58:42;;;;;;;0.60;0.60;;;18.10;69.20;;;;;;5073863;28;20525;-74
2021/10/03 06:01:07;;;;;;;0.65;0.65;;;18.10;69.10;;;;;;5074393;28;20189;-75
2021/10/03 06:03:33;;;;;;;1.08;0.70;;;18.20;69.20;;;;;;5074423;28;20208;-76
2021/10/03 06:05:58;;;;;;;0.60;0.60;;;18.10;69.10;;;;;;5073532;28;20253;-72
2021/10/03 06:08:24;;;;;;;0.68;0.68;;;18.20;69.20;;;;;;5074376;28;20254;-74
2021/10/03 06:10:49;;;;;;;0.60;0.60;;;18.10;69.20;;;;;;5074038;28;20209;-72
2021/10/03 06:13:15;;;;;;;0.60;0.60;;;18.10;69.20;;;;;;5073748;28;20245;-72
2021/10/03 06:15:43;;;;;;;0.75;0.75;;;18.10;69.10;;;;;;5074425;28;20178;-73
2021/10/03 06:18:10;;;;;;;0.80;0.80;;;18.10;69.20;;;;;;5074053;28;20671;-72
2021/10/03 06:20:35;;;;;;;0.57;0.57;;;18.10;69.20;;;;;;5073430;28;20179;-75
2021/10/03 06:23:01;;;;;;;0.63;0.63;;;18.10;69.20;;;;;;5073639;28;20225;-71
2021/10/03 06:25:26;;;;;;;0.60;0.60;;;18.10;69.10;;;;;;5073993;28;20178;-73
2021/10/03 06:27:52;;;;;;;0.63;0.60;;;18.10;69.20;;;;;;5073012;28;20224;-77
2021/10/03 06:30:17;;;;;;;0.90;0.90;;;18.10;69.90;;;;;;5073933;28;20230;-75
2021/10/03 06:32:44;;;;;;;0.60;0.60;;;18.10;69.10;;;;;;5074019;28;20201;-76
2021/10/03 06:35:09;;;;;;;0.63;0.63;;;18.10;69.10;;;;;;5073121;28;20177;-73
2021/10/03 06:37:35;;;;;;;0.90;0.90;;;18.10;70.00;;;;;;5073904;28;20171;-72
2021/10/03 06:40:00;;;;;;;0.75;0.70;;;18.10;69.10;;;;;;5073472;28;20170;-73
2021/10/03 06:42:26;;;;;;;0.60;0.60;;;18.10;69.10;;;;;;5072887;28;20288;-71
2021/10/03 06:44:51;;;;;;;1.60;0.75;;;18.10;69.30;;;;;;5073535;28;20174;-72
2021/10/03 06:47:17;;;;;;;1.00;0.73;;;18.10;69.20;;;;;;5073768;28;20204;-71
2021/10/03 06:49:42;;;;;;;0.57;0.57;;;18.10;69.10;;;;;;5072960;28;20210;-74
2021/10/03 06:52:09;;;;;;;0.68;0.68;;;18.10;69.20;;;;;;5073244;28;20182;-72
2021/10/03 06:54:34;;;;;;;0.60;0.60;;;18.10;69.10;;;;;;5072590;28;20621;-72
2021/10/03 06:57:00;;;;;;;0.50;0.50;;;18.10;69.10;;;;;;5073049;28;20197;-75
2021/10/03 06:59:26;;;;;;;0.55;0.55;;;18.10;69.10;;;;;;5073222;28;20228;-75
2021/10/03 07:01:52;;;;;;;0.80;0.80;;;18.10;69.10;;;;;;5072407;28;20586;-76
2021/10/03 07:04:17;;;;;;;0.75;0.60;;;18.10;69.20;;;;;;5073419;28;20178;-76
2021/10/03 07:06:43;;;;;;;1.00;0.90;;;18.10;69.20;;;;;;5073363;28;20649;-74
2021/10/03 07:09:08;;;;;;;0.65;0.60;;;18.10;69.10;;;;;;5072187;28;20178;-75
2021/10/03 07:11:34;;;;;;;0.63;0.57;;;18.10;69.30;;;;;;5073232;28;20214;-76
2021/10/03 07:13:59;;;;;;;0.50;0.50;;;18.10;69.10;;;;;;5072830;28;20209;-75
2021/10/03 07:16:25;;;;;;;0.50;0.50;;;18.10;69.10;;;;;;5072285;28;20612;-76
2021/10/03 07:18:50;;;;;;;0.68;0.68;;;18.10;69.20;;;;;;5072881;28;20170;-74
2021/10/03 07:21:16;;;;;;;0.65;0.60;;;18.10;69.20;;;;;;5073088;28;20178;-76
2021/10/03 07:23:41;;;;;;;0.63;0.60;;;18.10;69.20;;;;;;5074283;28;20221;-73
2021/10/03 07:26:07;;;;;;;0.50;0.50;;;18.10;69.20;;;;;;5073055;28;20182;-77
2021/10/03 07:28:33;;;;;;;0.93;0.70;;;18.10;69.10;;;;;;5073847;28;20174;-78
2021/10/03 07:30:59;;;;;;;0.60;0.60;;;18.10;69.20;;;;;;5071974;28;20222;-75
2021/10/03 07:33:24;;;;;;;0.47;0.47;;;18.10;69.20;;;;;;5072842;28;20560;-77
2021/10/03 07:35:50;;;;;;;0.80;0.80;;;18.10;69.20;;;;;;5072723;28;20183;-74
2021/10/03 07:38:15;;;;;;;0.60;0.60;;;18.10;70.00;;;;;;5071614;28;20173;-72
2021/10/03 07:40:41;;;;;;;3.22;0.90;;;18.10;69.20;;;;;;5072553;28;20280;-69
2021/10/03 07:43:07;;;;;;;3.08;1.23;;;18.10;69.30;;;;;;5072700;28;20193;-72
2021/10/03 07:45:32;;;;;;;1.05;0.70;;;18.10;69.30;;;;;;5072161;28;20182;-73
2021/10/03 07:47:58;;;;;;;1.70;0.68;;;18.10;69.30;;;;;;5072558;28;20178;-73
2021/10/03 07:50:24;;;;;;;1.27;0.50;;;18.10;69.30;;;;;;5072706;28;20225;-74
2021/10/03 07:52:49;;;;;;;1.83;0.70;;;18.20;69.40;;;;;;5071758;28;20640;-71
2021/10/03 07:55:14;;;;;;;1.58;0.70;;;18.20;69.50;;;;;;5073315;28;20174;-69
2021/10/03 07:57:40;;;;;;;3.58;0.88;;;18.20;69.50;;;;;;5072078;28;20166;-69
2021/10/03 08:00:06;;;;;;;3.03;0.90;;;18.20;69.60;;;;;;5072427;28;20182;-69
2021/10/03 08:02:32;;;;;;;2.35;0.63;;;18.20;69.60;;;;;;5072751;28;20269;-70
2021/10/03 08:04:57;;;;;;;2.22;0.70;;;18.30;69.90;;;;;;5071531;28;20630;-70
2021/10/03 08:07:23;;;;;;;1.60;0.70;;;18.30;70.00;;;;;;5072536;28;20262;-70
2021/10/03 08:09:48;;;;;;;1.50;0.77;;;18.40;70.20;;;;;;5072021;28;20209;-67
2021/10/03 08:12:14;;;;;;;2.15;0.85;;;18.50;70.10;;;;;;5072003;28;20167;-67
2021/10/03 08:14:39;;;;;;;1.65;1.00;;;18.60;70.00;;;;;;5072618;28;20174;-66
2021/10/03 08:17:05;;;;;;;1.00;0.77;;;18.80;69.50;;;;;;5072397;28;20194;-67
2021/10/03 08:19:30;;;;;;;2.17;0.80;;;18.90;69.20;;;;;;5071787;28;20177;-69
2021/10/03 08:21:56;;;;;;;4.13;1.00;;;19.10;68.90;;;;;;5072138;28;20174;-69
2021/10/03 08:24:22;;;;;;;2.40;0.88;;;19.20;68.50;;;;;;5072241;28;20219;-68
2021/10/03 08:26:47;;;;;;;0.98;0.90;;;19.30;68.20;;;;;;5071791;28;20236;-68
2021/10/03 08:29:13;;;;;;;2.40;1.23;;;19.40;68.00;;;;;;5072480;28;20253;-69
2021/10/03 08:31:38;;;;;;;1.25;0.90;;;19.50;67.80;;;;;;5072218;28;20669;-68
2021/10/03 08:34:04;;;;;;;2.25;1.17;;;19.50;67.70;;;;;;5071348;28;20224;-68
2021/10/03 08:36:29;;;;;;;1.42;0.85;;;19.60;67.50;;;;;;5072149;28;20181;-69
2021/10/03 08:38:55;;;;;;;2.10;0.93;;;19.70;67.40;;;;;;5071802;28;20644;-69
2021/10/03 08:41:21;;;;;;;2.85;0.98;;;19.70;67.20;;;;;;5071825;28;20228;-70
2021/10/03 08:43:49;;;;;;;1.10;0.80;;;19.70;67.20;;;;;;5072124;28;20197;-69
2021/10/03 08:46:15;;;;;;;1.58;1.02;;;19.80;67.10;;;;;;5072399;28;20201;-66
2021/10/03 08:48:40;;;;;;;2.63;0.90;;;19.80;66.90;;;;;;5070379;28;20277;-70
2021/10/03 08:51:06;;;;;;;1.05;0.70;;;19.80;66.90;;;;;;5073314;28;20759;-69
2021/10/03 08:53:31;;;;;;;1.77;0.98;;;19.80;66.80;;;;;;5075502;28;20166;-69
2021/10/03 08:55:57;;;;;;;1.48;0.80;;;19.80;66.90;;;;;;5074861;28;20228;-69
2021/10/03 08:58:23;;;;;;;1.98;0.70;;;19.80;67.80;;;;;;5075784;28;20175;-68
2021/10/03 09:00:49;;;;;;;1.60;0.90;;;19.70;67.00;;;;;;5075460;28;20217;-70
2021/10/03 09:03:17;;;;;;;1.90;0.80;;;19.70;67.20;;;;;;5074995;28;20206;-69
2021/10/03 09:05:50;;;;;;;1.25;0.70;;;19.60;67.30;;;;;;5075782;28;20178;-69
2021/10/03 09:08:43;;;;;;;2.40;0.80;;;19.60;67.40;;;;;;5074731;28;20182;-69
2021/10/03 09:11:09;;;;;;;3.58;1.05;;;19.50;67.60;;;;;;5074822;28;20285;-68
2021/10/03 09:13:35;;;;;;;2.80;1.10;;;19.50;67.70;;;;;;5075457;28;20599;-67
2021/10/03 09:16:07;;;;;;;1.35;0.80;;;19.40;67.80;;;;;;5074368;28;20677;-68
2021/10/03 09:18:46;;;;;;;3.05;0.80;;;19.40;68.00;;;;;;5075175;28;20198;-69
2021/10/03 09:21:13;;;;;;;4.35;1.48;;;19.30;68.10;;;;;;5075142;28;20224;-68
2021/10/03 09:23:39;;;;;;;1.65;1.20;;;19.30;68.20;;;;;;5074420;28;20227;-69
2021/10/03 09:26:10;;;;;;;1.23;1.00;;;19.30;68.30;;;;;;5074984;28;20266;-68
2021/10/03 09:28:36;;;;;;;0.82;0.80;;;19.30;68.30;;;;;;5075152;28;20220;-67
2021/10/03 09:31:05;;;;;;;2.83;0.95;;;19.30;68.50;;;;;;5073862;28;20206;-66
2021/10/03 09:33:43;;;;;;;1.73;0.90;;;19.20;68.50;;;;;;5075010;28;20532;-67
2021/10/03 09:36:10;;;;;;;1.02;0.70;;;19.20;68.50;;;;;;5074182;28;20178;-68
2021/10/03 09:39:07;;;;;;;1.77;0.95;;;19.20;68.60;;;;;;5074921;28;20182;-69
2021/10/03 09:41:34;;;;;;;0.73;0.70;;;19.10;68.60;;;;;;5073240;28;20189;-68
2021/10/03 09:44:05;;;;;;;1.33;0.93;;;19.10;68.70;;;;;;5074025;28;20171;-70
2021/10/03 09:46:40;;;;;;;1.27;0.75;;;19.10;68.80;;;;;;5074971;28;20232;-68
2021/10/03 09:49:08;;;;;;;1.70;0.60;;;19.10;68.90;;;;;;5074380;28;20182;-71
2021/10/03 09:51:34;;;;;;;0.95;0.70;;;19.10;68.90;;;;;;5078958;28;20219;-72
2021/10/03 09:53:59;;;;;;;1.10;0.77;;;19.10;68.80;;;;;;5074178;28;20649;-70
2021/10/03 09:56:25;;;;;;;1.73;0.98;;;19.10;68.90;;;;;;5074674;28;20175;-70
2021/10/03 09:58:53;;;;;;;1.33;0.90;;;19.10;68.90;;;;;;5072391;28;20633;-70
2021/10/03 10:01:18;;;;;;;0.85;0.70;;;19.10;68.90;;;;;;5074115;28;20178;-70
2021/10/03 10:03:44;;;;;;;2.35;1.10;;;19.10;69.00;;;;;;5073217;28;20197;-69
2021/10/03 10:06:09;;;;;;;2.38;0.80;;;19.10;69.10;;;;;;5073292;28;20202;-69
2021/10/03 10:08:36;;;;;;;1.50;0.90;;;19.10;69.00;;;;;;5074193;28;20185;-69
2021/10/03 10:11:29;;;;;;;0.68;0.65;;;19.10;69.00;;;;;;5074096;28;20287;-69
2021/10/03 10:13:55;;;;;;;2.55;1.30;;;19.10;69.00;;;;;;5054122;28;20182;-69
2021/10/03 10:16:32;;;;;;;1.10;0.82;;;19.10;69.10;;;;;;5073007;28;20170;-68
2021/10/03 10:19:28;;;;;;;1.90;0.90;;;19.10;69.10;;;;;;5072931;28;20235;-66
2021/10/03 10:22:13;;;;;;;1.95;0.77;;;19.10;69.10;;;;;;5073762;28;20672;-71
2021/10/03 10:24:45;;;;;;;1.75;0.70;;;19.10;69.10;;;;;;5074104;28;20238;-71
2021/10/03 10:27:29;;;;;;;0.75;0.75;;;19.10;69.10;;;;;;5072904;28;20181;-69
2021/10/03 10:30:02;;;;;;;1.45;0.73;;;19.10;69.10;;;;;;5073550;28;20216;-68
2021/10/03 10:32:53;;;;;;;1.30;0.90;;;19.10;69.10;;;;;;5073412;28;20257;-68
2021/10/03 10:35:20;;;;;;;1.63;0.90;;;19.00;69.00;;;;;;5073944;28;20179;-69
2021/10/03 10:37:57;;;;;;;0.95;0.80;;;19.00;69.00;;;;;;5073835;28;20232;-68
2021/10/03 10:40:25;;;;;;;1.70;0.80;;;19.00;69.90;;;;;;5072996;28;20193;-71
2021/10/03 10:42:55;;;;;;;2.20;0.65;;;19.00;69.10;;;;;;5073507;28;20171;-71
2021/10/03 10:45:27;;;;;;;1.83;0.70;;;19.00;69.10;;;;;;5073737;28;20205;-71
2021/10/03 10:48:11;;;;;;;2.53;1.02;;;19.00;69.10;;;;;;5072563;28;20731;-79
2021/10/03 10:50:38;;;;;;;1.48;0.95;;;19.10;69.10;;;;;;5073679;28;20218;-79
2021/10/03 10:53:30;;;;;;;1.02;0.75;;;19.10;69.10;;;;;;5073374;28;20228;-77
2021/10/03 10:56:08;;;;;;;1.60;0.60;;;19.10;69.10;;;;;;5072236;28;20531;-78
2021/10/03 10:58:58;;;;;;;2.40;1.00;;;19.10;69.10;;;;;;5073264;28;20166;-78
2021/10/03 11:01:29;;;;;;;1.63;0.90;;;19.00;69.10;;;;;;5068717;28;20533;-85
2021/10/03 11:03:55;;;;;;;2.60;0.98;;;19.10;69.10;;;;;;5073187;28;20182;-78
2021/10/03 11:06:20;;;;;;;0.98;0.50;;;19.10;69.10;;;;;;5073471;28;20259;-82
2021/10/03 11:09:01;;;;;;;3.00;1.05;;;19.10;69.10;;;;;;5072562;28;20308;-74
2021/10/03 11:11:33;;;;;;;1.65;1.00;;;19.10;69.10;;;;;;5073013;28;20625;-74
2021/10/03 11:14:01;;;;;;;2.58;0.80;;;19.10;69.10;;;;;;5072015;28;20535;-64
2021/10/03 11:16:36;;;;;;;2.05;0.80;;;19.00;69.10;;;;;;5072444;28;20167;-80
2021/10/03 11:19:16;;;;;;;3.40;0.77;;;19.00;69.10;;;;;;5072813;28;20580;-72
2021/10/03 11:21:48;;;;;;;2.03;0.80;;;19.10;69.30;;;;;;5072074;28;20637;-71
2021/10/03 11:24:21;;;;;;;3.47;0.80;;;19.10;69.00;;;;;;5072696;28;20234;-72
2021/10/03 11:26:48;;;;;;;3.53;0.77;;;19.10;68.90;;;;;;5072959;28;20185;-71
2021/10/03 11:29:14;;;;;;;2.05;0.98;;;19.10;68.80;;;;;;5072346;28;20645;-81
2021/10/03 11:31:49;;;;;;;3.15;0.80;;;19.10;68.90;;;;;;5072949;28;20263;-79
2021/10/03 11:34:45;;;;;;;3.08;0.68;;;19.00;69.00;;;;;;5073292;28;20253;-82
2021/10/03 11:37:26;;;;;;;0.82;0.63;;;19.00;69.50;;;;;;5067364;28;20183;-80
2021/10/03 11:39:55;;;;;;;1.70;1.02;;;19.00;69.20;;;;;;5072870;28;20170;-80
2021/10/03 11:42:29;;;;;;;3.28;0.73;;;19.00;69.30;;;;;;5073132;28;20178;-77
2021/10/03 11:44:58;;;;;;;2.90;0.80;;;19.00;69.30;;;;;;5072048;28;20206;-78
2021/10/03 11:47:24;;;;;;;1.42;0.82;;;19.00;69.30;;;;;;5072992;28;20174;-75
2021/10/03 11:49:49;;;;;;;1.33;0.75;;;19.00;69.30;;;;;;5071967;28;20220;-78
2021/10/03 11:52:29;;;;;;;2.78;0.82;;;18.90;69.20;;;;;;5072879;28;20213;-79
2021/10/03 11:54:59;;;;;;;2.40;0.90;;;18.90;69.20;;;;;;5072555;28;20196;-71
2021/10/03 11:57:28;;;;;;;1.63;1.02;;;18.90;69.30;;;;;;5071969;28;20637;-71
2021/10/03 12:00:03;;;;;;;3.95;1.00;;;18.90;69.40;;;;;;5072569;28;20532;-70
2021/10/03 12:02:34;;;;;;;2.38;0.60;;;18.90;69.40;;;;;;5072688;28;20232;-73
2021/10/03 12:04:59;;;;;;;3.25;0.70;;;19.00;69.60;;;;;;5071683;28;20544;-72
2021/10/03 12:07:25;;;;;;;1.85;0.70;;;18.90;69.40;;;;;;5072690;28;20637;-71
2021/10/03 12:10:04;;;;;;;2.03;0.88;;;18.90;69.50;;;;;;5072133;28;20681;-72
2021/10/03 12:13:00;;;;;;;1.95;0.60;;;18.90;69.40;;;;;;5072003;28;20216;-73
2021/10/03 12:15:39;;;;;;;2.08;0.50;;;18.90;69.40;;;;;;5072670;28;20182;-74
2021/10/03 12:18:07;;;;;;;2.78;0.70;;;19.00;69.40;;;;;;5071673;28;20182;-75
2021/10/03 12:20:49;;;;;;;2.85;0.90;;;19.00;69.30;;;;;;5072641;28;20258;-73
2021/10/03 12:23:18;;;;;;;1.40;0.77;;;19.00;69.30;;;;;;5072449;28;20230;-71
2021/10/03 12:25:43;;;;;;;3.75;0.70;;;19.00;70.20;;;;;;5073901;28;20167;-72
2021/10/03 12:28:09;;;;;;;1.85;0.65;;;19.00;69.40;;;;;;5075868;28;20182;-74
2021/10/03 12:30:52;;;;;;;1.60;0.60;;;19.00;69.40;;;;;;5076349;28;20210;-74
2021/10/03 12:33:18;;;;;;;1.52;0.57;;;19.00;69.40;;;;;;5075649;28;20170;-73
2021/10/03 12:36:01;;;;;;;2.13;1.00;;;19.00;69.40;;;;;;5076301;28;20261;-74
2021/10/03 12:38:27;;;;;;;1.50;0.60;;;19.00;69.40;;;;;;5076065;28;20637;-72
2021/10/03 12:40:53;;;;;;;0.82;0.68;;;19.00;69.40;;;;;;5075220;28;20265;-74
2021/10/03 12:43:18;;;;;;;0.88;0.50;;;19.00;69.40;;;;;;5076117;28;20202;-71
2021/10/03 12:45:44;;;;;;;2.03;0.65;;;19.00;69.50;;;;;;5075944;28;20206;-73
2021/10/03 12:48:09;;;;;;;0.90;0.60;;;19.00;69.40;;;;;;5074827;28;20170;-72
2021/10/03 12:50:35;;;;;;;2.30;0.80;;;19.00;69.40;;;;;;5075897;28;20615;-72